Terminal Aerodrome Forecast
Issued by NWS

Current Version | Previous Version | Text Only | Print | Product List | Glossary On
Versions: 1 2 3 4 5 6 7 8 9 10 11 12 13 14 15 16 17
349
FTUS44 KLIX 191419 AAA
TAFMCB
TAF AMD
KMCB 191419Z 1914/2012 21010G23KT 1SM +TSRA BR SCT007 BKN012
      OVC021CB
     FM191500 19011KT 3SM -TSRA BR OVC015CB
      TEMPO 1917/1921 2SM +TSRA
     FM192300 19011KT 2SM BR VCSH OVC005=

USA.gov is the U.S. government's official web portal to all federal, state and local government web resources and services.